Time;durP1;ratioP1;P1;durP2;ratioP2;P2;SDS_P1;SDS_P2;PMS_P1;PMS_P2;Temp;Humidity;BMP_temperature;BMP_pressure;BME280_temperature;BME280_humidity;BME280_pressure;Samples;Min_cycle;Max_cycle;Signal;HPM_P1;HPM_P2
2021/04/06 00:01:35;;;;;;;13.88;3.12;;;;;;;0.26;82.61;96920.86;1788421;78;21098;-73
2021/04/06 00:04:04;;;;;;;8.35;3.50;;;;;;;0.17;82.26;96912.95;1788883;80;21075;-71
2021/04/06 00:06:31;;;;;;;6.75;3.17;;;;;;;0.18;81.90;96915.39;1788888;78;22081;-72
2021/04/06 00:08:57;;;;;;;7.55;3.33;;;;;;;0.22;81.63;96911.19;1764142;80;21102;-73
2021/04/06 00:11:23;;;;;;;4.85;2.60;;;;;;;0.25;81.63;96907.23;1739492;80;21094;-72
2021/04/06 00:13:50;;;;;;;4.47;1.92;;;;;;;0.26;81.52;96907.02;1788931;80;21146;-73
2021/04/06 00:16:16;;;;;;;13.48;5.05;;;;;;;0.30;80.66;96899.86;1788777;78;21020;-72
2021/04/06 00:18:42;;;;;;;11.00;4.42;;;;;;;0.33;80.72;96892.70;1781566;80;21200;-72
2021/04/06 00:21:08;;;;;;;5.50;3.22;;;;;;;0.32;80.53;96897.75;1756552;80;21043;-72
2021/04/06 00:23:34;;;;;;;5.78;3.58;;;;;;;0.35;80.48;96909.28;1756657;80;21126;-72
2021/04/06 00:26:00;;;;;;;5.37;2.80;;;;;;;0.36;80.09;96913.56;1780793;79;21121;-72
2021/04/06 00:28:31;;;;;;;3.25;2.20;;;;;;;0.38;79.98;96924.78;1793608;80;21051;-72
2021/04/06 00:30:58;;;;;;;5.45;2.50;;;;;;;0.35;79.52;96913.28;1793587;80;21280;-72
2021/04/06 00:33:29;;;;;;;4.37;2.17;;;;;;;0.30;78.87;96921.17;1793595;80;21511;-72
2021/04/06 00:35:57;;;;;;;9.73;3.17;;;;;;;0.20;77.53;96924.48;1791397;80;21036;-72
2021/04/06 00:38:27;;;;;;;10.10;4.78;;;;;;;0.21;78.57;96926.89;1793633;80;21122;-72
2021/04/06 00:40:57;;;;;;;5.03;2.58;;;;;;;0.27;78.89;96933.13;1793614;78;21464;-73
2021/04/06 00:43:36;;;;;;;9.10;2.98;;;;;;;0.33;78.92;96941.48;1793586;80;22045;-72
2021/04/06 00:46:04;;;;;;;15.88;6.17;;;;;;;0.39;78.94;96946.38;1793577;80;21148;-72
2021/04/06 00:48:31;;;;;;;9.05;4.87;;;;;;;0.44;78.77;96951.28;1793579;80;21547;-72
2021/04/06 00:51:10;;;;;;;12.98;4.40;;;;;;;0.39;78.69;96954.38;1793607;80;21032;-73
2021/04/06 00:53:57;;;;;;;17.85;7.83;;;;;;;0.36;78.61;96954.34;1793649;80;21039;-73
2021/04/06 00:56:32;;;;;;;18.85;8.10;;;;;;;0.39;78.59;96965.04;1793498;80;21512;-73
2021/04/06 00:59:01;;;;;;;10.05;4.65;;;;;;;0.43;78.86;96951.53;1793450;80;21138;-72
2021/04/06 01:01:37;;;;;;;;;;;;;;;0.49;78.71;96955.35;1796221;80;21032;-72
2021/04/06 01:04:13;;;;;;;9.40;5.25;;;;;;;0.51;78.77;96951.11;1791407;80;20219;-72
2021/04/06 01:07:10;;;;;;;9.48;4.08;;;;;;;0.50;78.47;96955.62;1767221;80;21023;-72
2021/04/06 01:09:53;;;;;;;4.20;2.27;;;;;;;0.48;78.56;96965.73;1793563;80;21221;-73
2021/04/06 01:12:25;;;;;;;4.87;3.25;;;;;;;0.47;78.57;96965.45;1793433;80;21060;-72
2021/04/06 01:14:52;;;;;;;7.83;2.70;;;;;;;0.48;78.56;96951.59;1793594;80;21130;-72
2021/04/06 01:17:26;;;;;;;6.60;3.60;;;;;;;0.42;79.28;96947.22;1794554;79;21043;-72
2021/04/06 01:19:53;;;;;;;6.67;4.35;;;;;;;0.26;78.39;96950.17;1798994;79;21162;-72
2021/04/06 01:22:19;;;;;;;12.28;5.40;;;;;;;0.17;78.66;96960.41;1799111;79;21205;-72
2021/04/06 01:24:46;;;;;;;10.70;5.25;;;;;;;0.16;78.94;96962.77;1796795;79;21155;-72
2021/04/06 01:27:15;;;;;;;10.35;4.85;;;;;;;0.15;78.86;96967.81;1799135;79;21592;-72
2021/04/06 01:29:55;;;;;;;7.65;4.95;;;;;;;0.18;79.19;96966.02;1798562;79;21117;-72
2021/04/06 01:32:27;;;;;;;7.78;4.08;;;;;;;0.16;78.94;96956.10;1788602;80;21070;-73
2021/04/06 01:34:53;;;;;;;6.15;3.52;;;;;;;0.14;79.10;96982.18;1788777;78;21464;-73
2021/04/06 01:37:24;;;;;;;11.00;4.22;;;;;;;0.15;78.89;96989.13;1788740;80;21070;-73
2021/04/06 01:39:57;;;;;;;4.65;3.22;;;;;;;0.20;78.76;96987.90;1788762;78;21122;-72
2021/04/06 01:42:21;;;;;;;;;;;;;;;0.13;78.66;96974.43;1790780;80;21028;-72
2021/04/06 01:44:49;;;;;;;9.38;4.33;;;;;;;0.14;78.48;96978.19;1788864;78;20226;-72
2021/04/06 01:47:16;;;;;;;8.57;4.23;;;;;;;0.09;78.41;96971.97;1788994;80;21265;-73
2021/04/06 01:49:43;;;;;;;7.08;3.42;;;;;;;0.07;78.53;96961.53;1788707;78;21082;-73
2021/04/06 01:52:10;;;;;;;7.50;3.95;;;;;;;0.11;78.52;96962.69;1788725;80;21066;-73
2021/04/06 01:54:39;;;;;;;9.50;4.33;;;;;;;0.13;78.37;96955.78;1788826;80;21157;-73
2021/04/06 01:57:13;;;;;;;7.92;3.62;;;;;;;0.16;78.38;96960.63;1788769;78;21098;-73
2021/04/06 01:59:42;;;;;;;7.87;5.30;;;;;;;0.20;78.69;96962.59;1788286;80;22139;-73
2021/04/06 02:02:09;;;;;;;8.25;4.78;;;;;;;0.18;78.38;96963.36;1764847;80;21078;-73
2021/04/06 02:04:37;;;;;;;10.60;3.90;;;;;;;0.12;78.43;96960.83;1788839;80;21519;-73
2021/04/06 02:07:04;;;;;;;10.20;4.70;;;;;;;0.14;78.51;96966.72;1788708;78;21141;-73
2021/04/06 02:09:30;;;;;;;12.85;5.25;;;;;;;0.09;78.59;96970.12;1788764;80;21126;-73
2021/04/06 02:11:56;;;;;;;8.75;4.15;;;;;;;0.06;78.72;96958.59;1788751;78;22149;-73
2021/04/06 02:14:24;;;;;;;15.38;8.48;;;;;;;0.08;78.63;96957.02;1788669;80;21126;-73
2021/04/06 02:17:02;;;;;;;8.85;6.42;;;;;;;0.07;78.53;96962.86;1788717;78;21018;-73
2021/04/06 02:19:38;;;;;;;8.45;6.17;;;;;;;0.02;78.50;96966.78;1780900;80;21075;-72
2021/04/06 02:22:10;;;;;;;9.40;8.40;;;;;;;-0.04;78.31;96971.72;1780807;79;21456;-73
2021/04/06 02:24:52;;;;;;;6.60;5.05;;;;;;;0.01;78.36;96967.02;1780755;80;21266;-72
2021/04/06 02:27:23;;;;;;;9.20;4.10;;;;;;;-0.04;78.48;96963.20;1780023;80;21074;-72
2021/04/06 02:29:58;;;;;;;5.10;3.45;;;;;;;-0.08;78.01;96967.92;1780698;79;21087;-73
2021/04/06 02:32:28;;;;;;;10.40;5.55;;;;;;;-0.04;78.18;96974.38;1780704;80;21083;-72
2021/04/06 02:34:57;;;;;;;5.65;3.77;;;;;;;-0.07;77.95;96986.33;1780816;79;21055;-73
2021/04/06 02:37:29;;;;;;;8.73;5.00;;;;;;;-0.08;77.43;96994.56;1756791;80;21195;-73
2021/04/06 02:39:58;;;;;;;11.12;4.80;;;;;;;-0.09;77.42;96983.06;1793419;80;21092;-72
2021/04/06 02:42:39;;;;;;;9.55;4.00;;;;;;;-0.10;77.53;96975.32;1793689;80;21508;-72
2021/04/06 02:45:21;;;;;;;9.33;5.15;;;;;;;-0.07;77.31;96985.52;1793449;80;21206;-73
2021/04/06 02:48:14;;;;;;;11.95;5.50;;;;;;;-0.07;77.15;97000.17;1793561;80;21424;-73
2021/04/06 02:50:41;;;;;;;7.92;4.75;;;;;;;-0.03;77.24;97014.61;1793544;78;21210;-72
2021/04/06 02:53:09;;;;;;;13.65;5.08;;;;;;;0.01;77.08;97017.63;1791136;80;21031;-72
2021/04/06 02:55:36;;;;;;;8.43;4.17;;;;;;;0.03;77.12;97016.87;1766934;80;21051;-72
2021/04/06 02:58:14;;;;;;;7.83;4.53;;;;;;;0.03;76.67;97015.02;1793493;80;21083;-72
2021/04/06 03:00:40;;;;;;;10.08;4.80;;;;;;;0.04;76.74;97010.49;1793478;78;21126;-72
2021/04/06 03:03:24;;;;;;;10.03;4.70;;;;;;;0.03;76.64;97012.34;1793467;80;21448;-72
2021/04/06 03:06:14;;;;;;;7.85;5.53;;;;;;;0.05;76.40;97017.44;1793532;80;21123;-73
2021/04/06 03:08:41;;;;;;;8.28;3.55;;;;;;;0.04;76.63;97028.61;1793767;80;21436;-73
2021/04/06 03:11:10;;;;;;;9.33;4.47;;;;;;;0.07;75.97;97022.80;1793699;80;21040;-73
2021/04/06 03:13:41;;;;;;;;;;;;;;;0.01;76.21;97017.63;1795919;80;21067;-73
2021/04/06 03:16:08;;;;;;;11.83;4.10;;;;;;;0.01;76.33;97014.45;1793685;78;21923;-73
2021/04/06 03:18:37;;;;;;;7.60;4.30;;;;;;;0.06;76.46;97031.03;1791922;80;21130;-73
2021/04/06 03:21:08;;;;;;;6.80;4.28;;;;;;;0.08;76.42;97040.40;1790379;80;21151;-73
2021/04/06 03:23:34;;;;;;;6.50;3.77;;;;;;;0.08;75.90;97032.41;1790288;80;21104;-72
2021/04/06 03:26:02;;;;;;;8.83;4.42;;;;;;;0.11;76.01;97001.84;1790260;80;21158;-72
2021/04/06 03:28:39;;;;;;;9.18;4.17;;;;;;;0.10;75.71;96991.71;1790295;80;22036;-72
2021/04/06 03:31:15;;;;;;;24.67;12.33;;;;;;;0.11;75.75;96981.86;1790192;78;21131;-72
2021/04/06 03:33:44;;;;;;;9.08;4.30;;;;;;;0.10;75.73;96965.59;1757392;81;21099;-73
2021/04/06 03:36:29;;;;;;;9.30;5.08;;;;;;;0.10;74.80;96950.94;1790324;78;21117;-73
2021/04/06 03:39:05;;;;;;;13.13;6.47;;;;;;;0.13;75.47;96957.92;1790331;80;21087;-73
2021/04/06 03:41:33;;;;;;;7.30;5.03;;;;;;;0.16;75.51;96984.60;1790329;80;22259;-73
2021/04/06 03:44:10;;;;;;;8.98;3.67;;;;;;;0.18;75.60;96995.85;1790184;80;21064;-73
2021/04/06 03:46:40;;;;;;;9.00;3.90;;;;;;;0.16;75.25;97006.72;1790306;80;21425;-72
2021/04/06 03:49:22;;;;;;;7.97;3.33;;;;;;;0.09;75.13;97000.75;1790206;80;21432;-73
2021/04/06 03:52:07;;;;;;;7.60;4.03;;;;;;;0.04;74.94;96980.66;1790290;80;21023;-73
2021/04/06 03:54:45;;;;;;;8.13;3.90;;;;;;;0.05;74.92;96983.61;1790310;80;22131;-73
2021/04/06 03:57:53;;;;;;;19.12;11.78;;;;;;;0.04;74.95;96987.33;1790064;80;21181;-73
2021/04/06 04:00:18;;;;;;;43.40;18.75;;;;;;;0.03;74.98;96993.70;1789883;78;21075;-72
2021/04/06 04:02:45;;;;;;;45.52;21.52;;;;;;;0.01;74.65;96985.67;1759584;80;21540;-72
2021/04/06 04:05:12;;;;;;;51.00;21.00;;;;;;;0.01;74.72;96989.66;1790351;78;21448;-72
2021/04/06 04:07:38;;;;;;;25.25;12.33;;;;;;;0.04;74.71;97007.83;1790296;80;21326;-72
2021/04/06 04:10:08;;;;;;;20.15;12.73;;;;;;;0.02;74.53;97011.26;1790205;78;21242;-72
2021/04/06 04:12:35;;;;;;;21.17;10.80;;;;;;;-0.01;74.48;97032.49;1790191;80;21114;-73
2021/04/06 04:15:01;;;;;;;11.08;6.20;;;;;;;-0.04;74.43;97035.12;1790180;78;21170;-73
2021/04/06 04:17:28;;;;;;;6.55;4.33;;;;;;;-0.06;74.58;97034.55;1790258;80;21139;-73
2021/04/06 04:19:54;;;;;;;11.60;4.67;;;;;;;-0.02;74.54;97028.22;1798137;79;21205;-73
2021/04/06 04:22:20;;;;;;;12.15;5.40;;;;;;;-0.08;74.60;97029.98;1799119;79;21531;-73
2021/04/06 04:24:46;;;;;;;9.88;5.45;;;;;;;-0.06;74.64;97033.74;1799111;78;21091;-73
2021/04/06 04:27:13;;;;;;;30.15;14.30;;;;;;;-0.04;74.67;97031.64;1799181;79;21145;-73
2021/04/06 04:29:39;;;;;;;14.68;7.60;;;;;;;-0.04;74.54;97030.31;1799236;79;21024;-73
2021/04/06 04:32:16;;;;;;;13.62;6.58;;;;;;;-0.04;74.73;97040.97;1799128;79;21263;-73
2021/04/06 04:34:42;;;;;;;17.77;7.12;;;;;;;-0.05;74.54;97036.69;1797978;79;21063;-73
2021/04/06 04:37:08;;;;;;;14.90;6.35;;;;;;;-0.03;74.47;97035.40;1799266;79;21110;-73
2021/04/06 04:39:34;;;;;;;6.80;2.87;;;;;;;-0.01;74.47;97038.63;1799221;79;21556;-73
2021/04/06 04:42:01;;;;;;;13.30;6.58;;;;;;;0.04;74.32;97043.27;1799245;79;21098;-73
2021/04/06 04:44:27;;;;;;;9.68;6.58;;;;;;;0.03;74.23;97049.64;1799120;79;21102;-73
2021/04/06 04:46:53;;;;;;;14.80;6.55;;;;;;;0.04;74.18;97051.78;1799148;78;21103;-73
2021/04/06 04:49:19;;;;;;;15.10;5.80;;;;;;;0.03;74.09;97052.30;1799137;79;21039;-73
2021/04/06 04:51:45;;;;;;;13.65;6.60;;;;;;;0.07;74.20;97055.29;1799221;78;21071;-73
2021/04/06 04:54:11;;;;;;;10.65;4.72;;;;;;;0.10;74.20;97070.83;1799126;79;21083;-73
2021/04/06 04:56:37;;;;;;;14.58;5.62;;;;;;;0.17;74.09;97081.64;1799128;78;21267;-73
2021/04/06 04:59:03;;;;;;;12.80;6.53;;;;;;;0.18;73.99;97080.59;1799020;79;21099;-73
2021/04/06 05:01:31;;;;;;;33.53;14.80;;;;;;;0.17;74.05;97080.80;1799231;79;21428;-73
2021/04/06 05:03:57;;;;;;;58.52;23.77;;;;;;;0.15;73.87;97078.90;1799117;79;21051;-73
2021/04/06 05:06:24;;;;;;;56.08;22.32;;;;;;;0.18;73.99;97071.27;1799252;78;21490;-73
2021/04/06 05:08:50;;;;;;;29.05;15.08;;;;;;;0.18;74.34;97072.59;1799195;79;22190;-73
2021/04/06 05:11:16;;;;;;;23.35;10.32;;;;;;;0.18;74.67;97071.27;1799011;78;21043;-73
2021/04/06 05:13:42;;;;;;;32.42;18.20;;;;;;;0.22;74.15;97073.73;1799129;79;21118;-73
2021/04/06 05:16:08;;;;;;;62.10;31.25;;;;;;;0.23;73.89;97072.67;1799202;78;21015;-73
2021/04/06 05:18:34;;;;;;;31.15;19.60;;;;;;;0.28;73.96;97074.64;1798966;79;21079;-73
2021/04/06 05:21:00;;;;;;;42.27;24.32;;;;;;;0.24;74.14;97076.15;1799106;78;21165;-73
2021/04/06 05:23:27;;;;;;;48.00;26.55;;;;;;;0.30;74.00;97073.07;1799021;79;21170;-73
2021/04/06 05:25:54;;;;;;;44.88;22.27;;;;;;;0.35;74.04;97074.52;1799096;78;21087;-73
2021/04/06 05:28:21;;;;;;;43.60;22.40;;;;;;;0.33;73.61;97076.59;1799148;79;21095;-73
2021/04/06 05:30:47;;;;;;;22.42;10.93;;;;;;;0.33;73.34;97076.59;1799115;79;21015;-73
2021/04/06 05:33:14;;;;;;;20.25;11.45;;;;;;;0.33;73.42;97088.58;1799189;79;21202;-73
2021/04/06 05:35:40;;;;;;;17.25;9.53;;;;;;;0.34;73.38;97094.19;1799128;78;21437;-73
2021/04/06 05:38:06;;;;;;;15.85;8.33;;;;;;;0.29;73.20;97092.25;1799054;79;21172;-73
2021/04/06 05:40:32;;;;;;;13.35;6.30;;;;;;;0.34;73.39;97102.19;1799054;79;21130;-73
2021/04/06 05:43:01;;;;;;;11.93;6.72;;;;;;;0.33;73.17;97100.05;1799226;79;21119;-73
2021/04/06 05:45:27;;;;;;;15.05;6.72;;;;;;;0.35;73.12;97101.17;1799279;78;21416;-73
2021/04/06 05:47:55;;;;;;;16.20;5.90;;;;;;;0.40;73.05;97099.91;1799080;79;21547;-73
2021/04/06 05:50:21;;;;;;;16.40;6.87;;;;;;;0.41;72.73;97098.86;1799115;79;21122;-73
2021/04/06 05:52:47;;;;;;;11.65;5.20;;;;;;;0.35;72.71;97101.97;1799109;79;21138;-73
2021/04/06 05:55:13;;;;;;;17.07;5.53;;;;;;;0.37;72.68;97089.73;1799067;78;21035;-73
2021/04/06 05:57:40;;;;;;;10.03;4.33;;;;;;;0.38;72.74;97090.02;1799153;79;21208;-73
2021/04/06 06:00:08;;;;;;;15.80;5.08;;;;;;;0.42;72.90;97088.48;1799081;78;21193;-73
2021/04/06 06:02:36;;;;;;;9.08;4.35;;;;;;;0.35;73.16;97089.98;1799190;79;21134;-73
2021/04/06 06:05:04;;;;;;;15.53;5.85;;;;;;;0.33;73.00;97080.05;1799142;78;21784;-73
2021/04/06 06:07:30;;;;;;;8.93;5.70;;;;;;;0.41;72.75;97078.34;1799377;79;21107;-73
2021/04/06 06:09:56;;;;;;;9.25;4.85;;;;;;;0.48;72.83;97087.02;1799059;78;21278;-73
2021/04/06 06:12:22;;;;;;;14.55;6.47;;;;;;;0.54;72.59;97087.94;1799048;79;21106;-73
2021/04/06 06:14:53;;;;;;;12.13;6.28;;;;;;;0.58;72.30;97085.06;1799058;78;21023;-73
2021/04/06 06:17:25;;;;;;;7.85;4.62;;;;;;;0.55;72.42;97086.36;1799157;79;21100;-72
2021/04/06 06:19:55;;;;;;;9.83;4.62;;;;;;;0.55;71.54;97085.03;1764959;78;21127;-73
2021/04/06 06:22:22;;;;;;;;;;;;;;;0.60;71.57;97088.81;1792849;80;22063;-73
2021/04/06 06:24:50;;;;;;;15.35;8.25;;;;;;;0.55;71.65;97093.02;1790136;78;20418;-73
2021/04/06 06:27:37;;;;;;;13.10;5.37;;;;;;;0.64;71.71;97084.64;1790367;80;21076;-73
2021/04/06 06:33:20;;;;;;;10.60;6.22;;;;;;;0.78;70.87;97095.31;1790178;80;21070;-73
2021/04/06 06:35:59;;;;;;;11.97;5.47;;;;;;;0.90;70.97;97091.24;1790094;78;21206;-73
2021/04/06 06:38:34;;;;;;;;;;;;;;;1.01;71.14;97081.83;1792740;80;21058;-73
2021/04/06 06:41:18;;;;;;;26.60;12.35;;;;;;;0.98;71.13;97086.84;1790389;78;20269;-73
2021/04/06 06:43:52;;;;;;;14.03;6.12;;;;;;;1.02;71.21;97088.78;1790277;80;21122;-72
2021/04/06 06:46:30;;;;;;;17.45;6.85;;;;;;;1.08;71.00;97089.68;1783450;80;21024;-73
2021/04/06 06:49:04;;;;;;;22.60;11.43;;;;;;;1.03;71.18;97091.76;1790534;80;21249;-73
2021/04/06 06:51:36;;;;;;;52.75;20.25;;;;;;;1.06;71.34;97086.45;1790299;78;22213;-73
2021/04/06 06:54:05;;;;;;;56.42;25.10;;;;;;;1.10;71.35;97088.38;1790289;80;21035;-72
2021/04/06 06:56:39;;;;;;;37.58;17.27;;;;;;;1.15;71.41;97086.34;1784361;79;21133;-73
2021/04/06 06:59:06;;;;;;;17.85;9.70;;;;;;;1.20;71.29;97086.43;1785358;80;21031;-73
2021/04/06 07:01:35;;;;;;;15.48;7.05;;;;;;;1.19;70.82;97082.12;1756799;80;21275;-73
2021/04/06 07:04:07;;;;;;;19.40;9.35;;;;;;;1.12;69.83;97074.30;1785325;80;21173;-73
2021/04/06 07:06:36;;;;;;;14.85;8.28;;;;;;;1.04;70.36;97077.36;1785249;79;21122;-72
2021/04/06 07:09:22;;;;;;;19.67;9.83;;;;;;;0.99;69.90;97081.80;1785320;80;21198;-73
2021/04/06 07:11:54;;;;;;;21.02;8.58;;;;;;;1.07;70.39;97076.87;1761603;80;21008;-73
2021/04/06 07:14:23;;;;;;;15.85;6.75;;;;;;;1.09;70.33;97078.77;1785260;80;21049;-73
2021/04/06 07:16:49;;;;;;;15.28;7.40;;;;;;;1.07;70.64;97087.54;1785209;79;21039;-73
2021/04/06 07:19:15;;;;;;;16.25;8.93;;;;;;;1.02;70.24;97094.64;1785216;80;21396;-73
2021/04/06 07:21:42;;;;;;;17.12;8.28;;;;;;;1.00;70.18;97087.41;1785249;79;21079;-73
2021/04/06 07:24:10;;;;;;;15.18;7.08;;;;;;;1.04;70.30;97090.70;1785240;80;21177;-73
2021/04/06 07:26:37;;;;;;;18.17;6.58;;;;;;;1.08;69.99;97085.16;1785348;79;21189;-73
2021/04/06 07:29:04;;;;;;;17.62;7.35;;;;;;;0.94;69.88;97095.87;1785282;80;21122;-73
2021/04/06 07:31:31;;;;;;;15.28;7.00;;;;;;;0.97;70.19;97086.04;1732503;80;21106;-73
2021/04/06 07:33:57;;;;;;;21.05;8.30;;;;;;;0.97;70.11;97093.23;1785313;80;21535;-74
2021/04/06 07:36:25;;;;;;;17.10;7.15;;;;;;;1.03;70.22;97095.76;1785245;79;21130;-73
2021/04/06 07:38:58;;;;;;;16.80;7.28;;;;;;;1.07;69.78;97091.55;1785311;80;21188;-73
2021/04/06 07:41:28;;;;;;;13.78;6.55;;;;;;;1.11;69.99;97084.69;1785276;79;21109;-73
2021/04/06 07:43:56;;;;;;;18.40;9.10;;;;;;;1.10;69.73;97080.38;1785296;80;21099;-73
2021/04/06 07:46:39;;;;;;;19.27;10.03;;;;;;;1.16;69.90;97076.47;1785454;79;21071;-73
2021/04/06 07:49:30;;;;;;;23.10;11.40;;;;;;;1.18;69.50;97089.84;1785263;80;21084;-73
2021/04/06 07:51:59;;;;;;;22.60;9.90;;;;;;;1.20;69.62;97093.59;1785317;79;21380;-72
2021/04/06 07:54:40;;;;;;;17.87;9.43;;;;;;;1.08;68.31;97091.83;1785225;80;21035;-73
2021/04/06 07:57:06;;;;;;;64.87;28.90;;;;;;;1.09;68.51;97096.63;1784094;80;21083;-73
2021/04/06 07:59:36;;;;;;;27.10;13.38;;;;;;;1.19;69.15;97095.46;1785271;80;21464;-73
2021/04/06 08:02:11;;;;;;;18.52;7.92;;;;;;;1.32;69.28;97091.68;1785344;79;21436;-73
2021/04/06 08:04:48;;;;;;;15.15;7.15;;;;;;;1.46;68.98;97088.17;1785223;80;21189;-72
2021/04/06 08:07:23;;;;;;;19.55;9.23;;;;;;;1.51;68.82;97090.37;1785199;80;21071;-72
2021/04/06 08:09:54;;;;;;;41.63;15.30;;;;;;;1.52;67.96;97081.30;1785159;79;21026;-73
2021/04/06 08:12:33;;;;;;;20.70;9.80;;;;;;;1.58;68.14;97089.67;1784863;80;21157;-74
2021/04/06 08:15:21;;;;;;;18.48;9.53;;;;;;;1.62;67.98;97103.34;1785273;79;21003;-73
2021/04/06 08:17:54;;;;;;;16.20;6.28;;;;;;;1.74;67.94;97108.60;1785160;80;21197;-74
2021/04/06 08:20:35;;;;;;;17.23;9.58;;;;;;;1.86;67.57;97106.63;1760179;80;21137;-72
2021/04/06 08:23:05;;;;;;;19.77;9.23;;;;;;;1.84;67.56;97115.42;1788963;80;21475;-74
2021/04/06 08:25:36;;;;;;;19.40;9.80;;;;;;;2.02;67.70;97107.65;1788755;78;21086;-74
2021/04/06 08:28:28;;;;;;;21.55;8.43;;;;;;;2.20;67.47;97101.47;1788879;80;21082;-74
2021/04/06 08:31:15;;;;;;;20.55;9.08;;;;;;;2.22;66.72;97104.73;1788790;78;21243;-73
2021/04/06 08:33:41;;;;;;;15.53;8.95;;;;;;;2.18;66.38;97107.60;1788791;80;21090;-74
2021/04/06 08:36:07;;;;;;;14.60;8.38;;;;;;;2.17;65.62;97105.98;1788823;78;21472;-72
2021/04/06 08:38:38;;;;;;;17.25;8.08;;;;;;;2.18;66.15;97091.56;1788763;80;21133;-73
2021/04/06 08:41:28;;;;;;;16.25;7.80;;;;;;;2.35;66.61;97094.70;1788800;78;21068;-72
2021/04/06 08:43:56;;;;;;;19.52;9.00;;;;;;;2.63;66.24;97085.66;1787581;80;21153;-74
2021/04/06 08:46:40;;;;;;;20.50;9.70;;;;;;;2.86;65.95;97080.55;1788674;78;21059;-73
2021/04/06 08:49:24;;;;;;;20.68;7.47;;;;;;;2.92;65.19;97079.55;1788903;80;21098;-73
2021/04/06 08:51:59;;;;;;;15.25;7.90;;;;;;;2.93;65.40;97073.13;1788788;78;21023;-73
2021/04/06 08:54:31;;;;;;;14.75;6.87;;;;;;;2.99;63.82;97077.45;1788822;80;21066;-74
2021/04/06 08:57:00;;;;;;;18.45;8.15;;;;;;;2.88;63.87;97073.87;1788772;78;21253;-73
2021/04/06 08:59:33;;;;;;;23.35;7.25;;;;;;;3.10;64.21;97079.98;1788654;80;21113;-73
2021/04/06 09:02:10;;;;;;;18.90;7.20;;;;;;;3.44;59.74;97080.25;1788090;79;21066;-74
2021/04/06 09:04:49;;;;;;;19.15;7.03;;;;;;;3.65;57.92;97072.09;1785562;80;21063;-78
2021/04/06 09:07:29;;;;;;;16.10;7.47;;;;;;;3.96;56.97;97063.70;1788262;80;21097;-79
2021/04/06 09:10:10;;;;;;;14.15;6.60;;;;;;;5.80;55.86;97061.30;1788154;78;22045;-71
2021/04/06 09:12:40;;;;;;;11.08;6.10;;;;;;;5.21;52.48;97050.63;1787879;80;21082;-73
2021/04/06 09:15:09;;;;;;;16.23;6.00;;;;;;;5.45;54.42;97048.19;1763406;80;21178;-72
2021/04/06 09:17:36;;;;;;;15.65;6.28;;;;;;;5.77;56.86;97037.66;1787979;80;21106;-71
2021/04/06 09:20:12;;;;;;;11.95;6.37;;;;;;;5.60;57.93;97036.63;1787650;79;21075;-72
2021/04/06 09:22:40;;;;;;;16.65;6.85;;;;;;;5.41;55.90;97021.60;1791042;79;21479;-72
2021/04/06 09:25:29;;;;;;;19.25;10.50;;;;;;;5.04;57.79;97037.97;1784568;80;21178;-73
2021/04/06 09:27:57;;;;;;;;;;;;;;;5.07;57.72;97044.17;1756839;81;21094;-73
2021/04/06 09:30:32;;;;;;;16.48;6.60;;;;;;;5.07;54.83;97049.55;1766677;80;20537;-74
2021/04/06 09:33:03;;;;;;;13.30;5.10;;;;;;;4.90;55.56;97055.16;1783523;80;21055;-77
2021/04/06 09:35:30;;;;;;;14.40;5.83;;;;;;;4.83;54.26;97045.75;1783509;80;21088;-73
2021/04/06 09:37:58;;;;;;;16.82;6.50;;;;;;;5.27;57.08;97052.77;1783269;80;21079;-73
2021/04/06 09:40:36;;;;;;;16.73;8.28;;;;;;;5.48;56.65;97057.61;1783795;80;21508;-73
2021/04/06 09:43:03;;;;;;;16.10;6.75;;;;;;;5.20;54.89;97042.28;1744164;80;21141;-73
2021/04/06 09:45:29;;;;;;;15.65;7.92;;;;;;;5.02;54.99;97037.45;1702949;82;21066;-74
2021/04/06 09:47:55;;;;;;;16.50;7.17;;;;;;;4.88;56.00;97041.75;1731886;82;21165;-73
2021/04/06 09:50:22;;;;;;;25.77;10.85;;;;;;;4.91;56.84;97033.15;1731648;81;21144;-73
2021/04/06 09:52:48;;;;;;;36.10;15.43;;;;;;;4.99;57.17;97042.02;1731844;82;21510;-73
2021/04/06 09:55:14;;;;;;;13.53;7.08;;;;;;;4.64;56.01;97053.50;1731787;81;21066;-73
2021/04/06 09:57:44;;;;;;;14.75;7.05;;;;;;;4.22;56.27;97065.16;1731995;82;21153;-73
2021/04/06 10:00:20;;;;;;;14.85;7.92;;;;;;;3.87;56.77;97067.14;1731872;81;21218;-74
2021/04/06 10:03:09;;;;;;;14.40;7.20;;;;;;;3.80;57.05;97077.27;1716848;83;21479;-74
2021/04/06 10:05:42;;;;;;;;;;;;;;;3.35;57.38;97082.06;1740910;81;21069;-74
2021/04/06 10:08:07;;;;;;;17.80;7.75;;;;;;;3.45;58.47;97077.84;1740069;82;20495;-73
2021/04/06 10:10:34;;;;;;;18.77;7.05;;;;;;;3.82;58.48;97079.97;1740222;81;21129;-73
2021/04/06 10:13:00;;;;;;;23.80;9.28;;;;;;;4.21;57.13;97079.64;1740327;82;21464;-73
2021/04/06 10:15:29;;;;;;;16.90;7.25;;;;;;;4.71;57.28;97072.84;1734633;82;21123;-73
2021/04/06 10:17:55;;;;;;;11.35;5.25;;;;;;;5.02;56.06;97075.03;1740465;82;21106;-73
2021/04/06 10:20:26;;;;;;;12.55;4.85;;;;;;;5.06;54.42;97065.39;1740105;81;21117;-73
2021/04/06 10:22:56;;;;;;;16.65;6.75;;;;;;;5.22;52.87;97059.50;1740370;82;21510;-73
2021/04/06 10:25:29;;;;;;;9.40;4.78;;;;;;;5.46;54.17;97054.36;1740229;81;22329;-73
2021/04/06 10:28:00;;;;;;;13.88;5.97;;;;;;;5.65;53.49;97055.44;1710919;82;21124;-74
2021/04/06 10:30:49;;;;;;;11.38;6.03;;;;;;;5.68;53.17;97049.51;1740179;81;21165;-73
2021/04/06 10:33:19;;;;;;;18.65;8.05;;;;;;;5.68;52.59;97052.73;1740396;82;21085;-73
2021/04/06 10:35:52;;;;;;;15.43;6.78;;;;;;;5.28;50.18;97053.83;1739237;81;21042;-74
2021/04/06 10:38:34;;;;;;;12.45;5.70;;;;;;;5.18;50.73;97054.38;1740241;82;21191;-72
2021/04/06 10:41:14;;;;;;;22.80;7.72;;;;;;;5.03;50.26;97055.97;1739990;81;21089;-73
2021/04/06 10:43:49;;;;;;;13.25;6.20;;;;;;;5.30;52.77;97055.73;1740272;82;21133;-73
2021/04/06 10:46:18;;;;;;;11.70;5.78;;;;;;;5.54;52.63;97057.31;1740184;81;21494;-73
2021/04/06 10:48:50;;;;;;;11.18;5.10;;;;;;;5.64;51.71;97051.95;1740416;82;21105;-73
2021/04/06 10:51:19;;;;;;;9.95;5.78;;;;;;;5.49;51.44;97057.34;1740180;81;21193;-74
2021/04/06 10:53:49;;;;;;;19.00;5.75;;;;;;;4.89;48.20;97068.32;1740298;82;21116;-73
2021/04/06 10:56:27;;;;;;;23.30;5.78;;;;;;;5.16;50.48;97064.59;1739908;81;21427;-74
2021/04/06 10:59:01;;;;;;;12.73;5.83;;;;;;;4.94;49.60;97053.55;1739381;82;21574;-75
2021/04/06 11:01:37;;;;;;;30.12;6.28;;;;;;;4.99;50.28;97045.50;1740319;81;21435;-73
2021/04/06 11:04:10;;;;;;;11.70;5.55;;;;;;;4.85;50.85;97054.34;1740251;82;21279;-72
2021/04/06 11:06:38;;;;;;;14.63;7.03;;;;;;;4.77;49.83;97057.00;1740184;81;21074;-74
2021/04/06 11:09:15;;;;;;;14.90;6.15;;;;;;;4.83;52.01;97057.83;1740388;82;21113;-74
2021/04/06 11:11:43;;;;;;;19.73;8.23;;;;;;;5.09;50.99;97054.10;1739584;81;21121;-73
2021/04/06 11:14:14;;;;;;;13.78;4.95;;;;;;;5.35;50.21;97058.41;1740255;82;21104;-73
2021/04/06 11:16:41;;;;;;;11.68;5.65;;;;;;;5.83;50.92;97044.66;1740212;81;21566;-74
2021/04/06 11:19:19;;;;;;;14.60;5.87;;;;;;;5.74;48.40;97030.96;1740148;82;21145;-74
2021/04/06 11:21:49;;;;;;;8.03;4.65;;;;;;;5.60;46.48;97033.39;1732293;81;21448;-73
2021/04/06 11:24:16;;;;;;;19.02;9.55;;;;;;;5.71;45.98;97036.86;1729803;82;21511;-72
2021/04/06 11:26:43;;;;;;;10.65;6.08;;;;;;;5.88;48.57;97036.55;1729865;81;21109;-72
2021/04/06 11:29:11;;;;;;;10.85;5.78;;;;;;;5.59;49.37;97042.53;1729957;83;21173;-72
2021/04/06 11:31:38;;;;;;;9.05;4.90;;;;;;;5.45;45.47;97035.29;1729904;81;21073;-73
2021/04/06 11:34:06;;;;;;;14.68;7.33;;;;;;;4.99;46.96;97029.94;1729915;83;21125;-74
2021/04/06 11:36:33;;;;;;;12.55;7.30;;;;;;;4.85;47.75;97022.93;1729851;81;21121;-74
2021/04/06 11:39:00;;;;;;;18.70;8.28;;;;;;;4.98;50.07;97017.59;1729890;83;21097;-74
2021/04/06 11:41:26;;;;;;;11.43;5.37;;;;;;;5.12;49.16;97012.47;1729846;81;21213;-73
2021/04/06 11:43:53;;;;;;;10.63;5.05;;;;;;;5.29;48.74;97004.94;1729848;83;21600;-74
2021/04/06 11:46:19;;;;;;;9.10;5.30;;;;;;;5.16;48.76;97004.97;1729836;81;21070;-73
2021/04/06 11:48:45;;;;;;;8.58;4.97;;;;;;;5.39;48.29;97007.64;1729957;82;21137;-73
2021/04/06 11:51:14;;;;;;;10.78;5.08;;;;;;;5.60;47.75;97009.75;1729871;81;21089;-74
2021/04/06 11:53:41;;;;;;;10.05;7.12;;;;;;;5.56;46.46;97010.84;1729892;83;21192;-73
2021/04/06 11:56:07;;;;;;;10.80;5.90;;;;;;;5.83;46.70;97013.73;1729787;81;21431;-73
2021/04/06 11:58:33;;;;;;;12.35;6.35;;;;;;;5.71;47.53;97007.83;1729851;82;21121;-73